createdAt,value
2018-04-10T00:00:04.658Z,62.2
2018-04-10T00:30:04.498Z,62.7
2018-04-10T00:45:04.840Z,63
2018-04-10T01:00:05.354Z,63.3
2018-04-10T01:15:05.067Z,63.3
2018-04-10T01:30:04.868Z,63.7
2018-04-10T01:45:04.908Z,64.7
2018-04-10T02:00:05.366Z,64.1
2018-04-10T02:15:04.851Z,64.6
2018-04-10T02:30:04.656Z,66.3
2018-04-10T02:45:04.994Z,66.4
2018-04-10T03:00:05.139Z,66.3
2018-04-10T03:15:05.223Z,67.1
2018-04-10T03:30:04.674Z,66.8
2018-04-10T03:45:04.635Z,67.2
2018-04-10T04:00:05.597Z,67.4
2018-04-10T04:15:04.697Z,68.1
2018-04-10T04:30:04.796Z,68.1
2018-04-10T04:45:04.694Z,68.6
2018-04-10T05:00:05.589Z,68.6
2018-04-10T05:15:04.788Z,69.6
2018-04-10T05:30:05.026Z,69.1
2018-04-10T05:45:04.975Z,69.2
2018-04-10T06:00:04.971Z,70.8
2018-04-10T06:15:04.334Z,69.1
2018-04-10T06:30:04.986Z,67.8
2018-04-10T06:45:04.358Z,65.4
2018-04-10T07:00:04.739Z,64.8
2018-04-10T07:15:05.152Z,64.7
2018-04-10T07:30:04.311Z,60.3
2018-04-10T07:45:04.739Z,62.1
2018-04-10T08:00:05.262Z,58
2018-04-10T08:15:05.161Z,35.7
2018-04-10T08:30:04.333Z,33.5
2018-04-10T08:45:04.385Z,29.4
2018-04-10T09:00:04.452Z,28.3
2018-04-10T09:15:04.955Z,27.3
2018-04-10T09:30:04.553Z,27.5
2018-04-10T09:45:04.466Z,24.4
2018-04-10T10:00:05.026Z,31.4
2018-04-10T10:15:04.450Z,37.5
2018-04-10T10:30:04.579Z,40.2
2018-04-10T10:45:04.419Z,43.2
2018-04-10T11:00:04.827Z,43.6
2018-04-10T11:15:04.709Z,45.4
2018-04-10T11:30:04.417Z,45.8
2018-04-10T11:45:04.326Z,46.1
2018-04-10T12:00:04.744Z,45.8
2018-04-10T12:15:04.676Z,48.3
2018-04-10T12:30:04.816Z,47.7
2018-04-10T12:45:04.745Z,49.3
2018-04-10T13:00:04.323Z,50.7
2018-04-10T13:15:04.745Z,49.8
2018-04-10T13:30:04.319Z,51.9
2018-04-10T13:45:04.723Z,54.6
2018-04-10T14:00:05.185Z,54.6
2018-04-10T14:15:05.144Z,55.2
2018-04-10T14:30:04.743Z,54.8
2018-04-10T14:45:04.625Z,56
2018-04-10T15:00:04.520Z,54.7
2018-04-10T15:15:04.459Z,55.5
2018-04-10T15:30:04.546Z,57.1
2018-04-10T15:45:04.459Z,57.2
2018-04-10T16:00:05.045Z,56.5
2018-04-10T16:15:04.620Z,56.2
2018-04-10T16:30:05.293Z,56.8
2018-04-10T16:45:05.516Z,55.8
2018-04-10T17:00:05.476Z,56.1
2018-04-10T17:15:04.377Z,56.3
2018-04-10T17:30:05.022Z,56.3
2018-04-10T17:45:05.139Z,56.2
2018-04-10T18:00:05.233Z,55.2
2018-04-10T18:15:04.638Z,55.5
2018-04-10T18:30:05.111Z,54.8
2018-04-10T18:45:04.899Z,54.9
2018-04-10T19:00:04.668Z,56.4
2018-04-10T19:15:05.103Z,56.7
2018-04-10T19:30:04.874Z,57.4
2018-04-10T19:45:04.933Z,57.5
2018-04-10T20:00:04.847Z,58.2
2018-04-10T20:15:04.357Z,58.7
2018-04-10T20:30:04.673Z,59.4
2018-04-10T20:45:05.367Z,60
2018-04-10T21:00:05.116Z,60.2
2018-04-10T21:15:05.198Z,61.3
2018-04-10T21:30:04.491Z,61.6
2018-04-10T21:45:05.090Z,61.6
2018-04-10T22:00:05.235Z,62.6
2018-04-10T22:15:05.297Z,62.5
2018-04-10T22:30:04.897Z,63.1
2018-04-10T22:45:04.391Z,64.1
2018-04-10T23:00:04.382Z,64.7
2018-04-10T23:15:04.799Z,65.1
2018-04-10T23:30:04.921Z,64.8
2018-04-10T23:45:04.824Z,65.1
